sensor_id;sensor_type;location;lat;lon;timestamp;P1;durP1;ratioP1;P2;durP2;ratioP2
35540;SDS011;21650;48.840;9.162;2024-03-22T00:00:12;5.80;;;3.57;;
35540;SDS011;21650;48.840;9.162;2024-03-22T00:02:38;4.90;;;3.30;;
35540;SDS011;21650;48.840;9.162;2024-03-22T00:05:04;2.70;;;2.50;;
35540;SDS011;21650;48.840;9.162;2024-03-22T00:07:30;7.10;;;3.47;;
35540;SDS011;21650;48.840;9.162;2024-03-22T00:09:56;3.83;;;2.23;;
35540;SDS011;21650;48.840;9.162;2024-03-22T00:12:22;5.10;;;2.60;;
35540;SDS011;21650;48.840;9.162;2024-03-22T00:14:47;5.90;;;2.73;;
35540;SDS011;21650;48.840;9.162;2024-03-22T00:17:13;4.13;;;2.03;;
35540;SDS011;21650;48.840;9.162;2024-03-22T00:19:39;4.50;;;2.90;;
35540;SDS011;21650;48.840;9.162;2024-03-22T00:22:04;5.80;;;3.70;;
35540;SDS011;21650;48.840;9.162;2024-03-22T00:24:30;4.83;;;3.33;;
35540;SDS011;21650;48.840;9.162;2024-03-22T00:26:55;6.87;;;4.10;;
35540;SDS011;21650;48.840;9.162;2024-03-22T00:29:21;2.80;;;2.10;;
35540;SDS011;21650;48.840;9.162;2024-03-22T00:31:47;4.27;;;2.73;;
35540;SDS011;21650;48.840;9.162;2024-03-22T00:34:12;3.87;;;2.97;;
35540;SDS011;21650;48.840;9.162;2024-03-22T00:36:38;5.27;;;2.77;;
35540;SDS011;21650;48.840;9.162;2024-03-22T00:39:03;3.87;;;3.10;;
35540;SDS011;21650;48.840;9.162;2024-03-22T00:41:29;1.87;;;1.77;;
35540;SDS011;21650;48.840;9.162;2024-03-22T00:43:55;3.20;;;2.90;;
35540;SDS011;21650;48.840;9.162;2024-03-22T00:46:20;4.37;;;2.80;;
35540;SDS011;21650;48.840;9.162;2024-03-22T00:48:46;3.00;;;1.80;;
35540;SDS011;21650;48.840;9.162;2024-03-22T00:51:11;7.83;;;3.93;;
35540;SDS011;21650;48.840;9.162;2024-03-22T00:53:37;3.83;;;2.37;;
35540;SDS011;21650;48.840;9.162;2024-03-22T00:56:02;3.30;;;2.63;;
35540;SDS011;21650;48.840;9.162;2024-03-22T00:58:29;5.10;;;2.47;;
35540;SDS011;21650;48.840;9.162;2024-03-22T01:00:55;3.67;;;2.27;;
35540;SDS011;21650;48.840;9.162;2024-03-22T01:03:20;2.80;;;2.60;;
35540;SDS011;21650;48.840;9.162;2024-03-22T01:05:46;2.63;;;2.33;;
35540;SDS011;21650;48.840;9.162;2024-03-22T01:08:12;3.97;;;2.77;;
35540;SDS011;21650;48.840;9.162;2024-03-22T01:10:38;4.47;;;2.33;;
35540;SDS011;21650;48.840;9.162;2024-03-22T01:13:03;3.83;;;2.60;;
35540;SDS011;21650;48.840;9.162;2024-03-22T01:15:29;3.27;;;2.33;;
35540;SDS011;21650;48.840;9.162;2024-03-22T01:17:55;2.73;;;2.33;;
35540;SDS011;21650;48.840;9.162;2024-03-22T01:20:20;4.80;;;3.23;;
35540;SDS011;21650;48.840;9.162;2024-03-22T01:22:46;2.47;;;2.23;;
35540;SDS011;21650;48.840;9.162;2024-03-22T01:25:11;3.67;;;2.53;;
35540;SDS011;21650;48.840;9.162;2024-03-22T01:27:37;4.47;;;3.17;;
35540;SDS011;21650;48.840;9.162;2024-03-22T01:30:03;3.97;;;2.40;;
35540;SDS011;21650;48.840;9.162;2024-03-22T01:32:29;3.67;;;2.27;;
35540;SDS011;21650;48.840;9.162;2024-03-22T01:34:56;3.83;;;2.43;;
35540;SDS011;21650;48.840;9.162;2024-03-22T01:37:22;4.37;;;3.07;;
35540;SDS011;21650;48.840;9.162;2024-03-22T01:39:48;2.07;;;1.53;;
35540;SDS011;21650;48.840;9.162;2024-03-22T01:42:13;3.83;;;2.97;;
35540;SDS011;21650;48.840;9.162;2024-03-22T01:44:39;4.07;;;3.10;;
35540;SDS011;21650;48.840;9.162;2024-03-22T01:47:05;3.20;;;2.93;;
35540;SDS011;21650;48.840;9.162;2024-03-22T01:49:30;3.37;;;2.00;;
35540;SDS011;21650;48.840;9.162;2024-03-22T01:51:56;3.50;;;2.63;;
35540;SDS011;21650;48.840;9.162;2024-03-22T01:54:22;2.57;;;2.37;;
35540;SDS011;21650;48.840;9.162;2024-03-22T01:56:48;2.00;;;1.40;;
35540;SDS011;21650;48.840;9.162;2024-03-22T01:59:13;3.77;;;2.40;;
35540;SDS011;21650;48.840;9.162;2024-03-22T02:01:39;4.87;;;2.07;;
35540;SDS011;21650;48.840;9.162;2024-03-22T02:04:05;5.07;;;2.93;;
35540;SDS011;21650;48.840;9.162;2024-03-22T02:06:31;4.10;;;2.57;;
35540;SDS011;21650;48.840;9.162;2024-03-22T02:08:57;4.30;;;2.87;;
35540;SDS011;21650;48.840;9.162;2024-03-22T02:11:23;4.40;;;2.67;;
35540;SDS011;21650;48.840;9.162;2024-03-22T02:13:50;4.40;;;3.40;;
35540;SDS011;21650;48.840;9.162;2024-03-22T02:16:16;3.93;;;2.60;;
35540;SDS011;21650;48.840;9.162;2024-03-22T02:18:42;4.23;;;2.10;;
35540;SDS011;21650;48.840;9.162;2024-03-22T02:21:09;3.60;;;3.03;;
35540;SDS011;21650;48.840;9.162;2024-03-22T02:23:35;1.67;;;1.57;;
35540;SDS011;21650;48.840;9.162;2024-03-22T02:26:02;4.40;;;2.73;;
35540;SDS011;21650;48.840;9.162;2024-03-22T02:28:28;2.87;;;1.60;;
35540;SDS011;21650;48.840;9.162;2024-03-22T02:30:55;4.30;;;2.40;;
35540;SDS011;21650;48.840;9.162;2024-03-22T02:33:21;2.20;;;2.00;;
35540;SDS011;21650;48.840;9.162;2024-03-22T02:35:47;2.63;;;2.40;;
35540;SDS011;21650;48.840;9.162;2024-03-22T02:38:13;1.93;;;1.83;;
35540;SDS011;21650;48.840;9.162;2024-03-22T02:40:38;2.37;;;2.17;;
35540;SDS011;21650;48.840;9.162;2024-03-22T02:43:04;2.87;;;2.67;;
35540;SDS011;21650;48.840;9.162;2024-03-22T02:45:30;2.47;;;1.43;;
35540;SDS011;21650;48.840;9.162;2024-03-22T02:47:56;1.83;;;1.73;;
35540;SDS011;21650;48.840;9.162;2024-03-22T02:50:21;3.17;;;1.93;;
35540;SDS011;21650;48.840;9.162;2024-03-22T02:52:50;2.60;;;2.17;;
35540;SDS011;21650;48.840;9.162;2024-03-22T02:55:16;4.50;;;2.60;;
35540;SDS011;21650;48.840;9.162;2024-03-22T02:57:42;3.90;;;2.23;;
35540;SDS011;21650;48.840;9.162;2024-03-22T03:00:07;3.10;;;2.33;;
35540;SDS011;21650;48.840;9.162;2024-03-22T03:02:33;4.53;;;3.20;;
35540;SDS011;21650;48.840;9.162;2024-03-22T03:04:59;3.00;;;2.00;;
35540;SDS011;21650;48.840;9.162;2024-03-22T03:07:25;6.57;;;1.67;;
35540;SDS011;21650;48.840;9.162;2024-03-22T03:09:50;4.60;;;3.43;;
35540;SDS011;21650;48.840;9.162;2024-03-22T03:12:16;4.60;;;3.27;;
35540;SDS011;21650;48.840;9.162;2024-03-22T03:14:42;5.27;;;1.83;;
35540;SDS011;21650;48.840;9.162;2024-03-22T03:17:07;6.87;;;3.93;;
35540;SDS011;21650;48.840;9.162;2024-03-22T03:19:33;3.40;;;2.57;;
35540;SDS011;21650;48.840;9.162;2024-03-22T03:21:59;3.33;;;2.23;;
35540;SDS011;21650;48.840;9.162;2024-03-22T03:24:24;3.33;;;2.70;;
35540;SDS011;21650;48.840;9.162;2024-03-22T03:26:50;3.60;;;2.57;;
35540;SDS011;21650;48.840;9.162;2024-03-22T03:29:15;2.70;;;2.50;;
35540;SDS011;21650;48.840;9.162;2024-03-22T03:31:41;7.03;;;4.10;;
35540;SDS011;21650;48.840;9.162;2024-03-22T03:34:06;3.87;;;2.23;;
35540;SDS011;21650;48.840;9.162;2024-03-22T03:36:32;6.13;;;1.87;;
35540;SDS011;21650;48.840;9.162;2024-03-22T03:38:57;3.47;;;2.17;;
35540;SDS011;21650;48.840;9.162;2024-03-22T03:41:23;2.43;;;2.23;;
35540;SDS011;21650;48.840;9.162;2024-03-22T03:43:48;3.13;;;1.57;;
35540;SDS011;21650;48.840;9.162;2024-03-22T03:46:14;7.50;;;3.57;;
35540;SDS011;21650;48.840;9.162;2024-03-22T03:48:40;4.27;;;2.83;;
35540;SDS011;21650;48.840;9.162;2024-03-22T03:51:05;1.03;;;1.00;;
35540;SDS011;21650;48.840;9.162;2024-03-22T03:53:31;5.40;;;3.23;;
35540;SDS011;21650;48.840;9.162;2024-03-22T03:55:56;2.10;;;1.97;;
35540;SDS011;21650;48.840;9.162;2024-03-22T03:58:22;4.07;;;1.77;;
35540;SDS011;21650;48.840;9.162;2024-03-22T04:00:48;3.77;;;1.53;;
35540;SDS011;21650;48.840;9.162;2024-03-22T04:03:13;3.27;;;2.33;;
35540;SDS011;21650;48.840;9.162;2024-03-22T04:05:39;1.57;;;1.33;;
35540;SDS011;21650;48.840;9.162;2024-03-22T04:08:05;5.30;;;2.67;;
35540;SDS011;21650;48.840;9.162;2024-03-22T04:10:30;2.73;;;2.47;;
35540;SDS011;21650;48.840;9.162;2024-03-22T04:12:57;3.60;;;2.00;;
35540;SDS011;21650;48.840;9.162;2024-03-22T04:15:23;2.17;;;1.37;;
35540;SDS011;21650;48.840;9.162;2024-03-22T04:17:49;1.63;;;1.53;;
35540;SDS011;21650;48.840;9.162;2024-03-22T04:20:14;2.37;;;2.17;;
35540;SDS011;21650;48.840;9.162;2024-03-22T04:22:40;3.67;;;2.10;;
35540;SDS011;21650;48.840;9.162;2024-03-22T04:25:06;4.47;;;3.47;;
35540;SDS011;21650;48.840;9.162;2024-03-22T04:27:31;2.77;;;2.43;;
35540;SDS011;21650;48.840;9.162;2024-03-22T04:29:57;5.07;;;2.70;;
35540;SDS011;21650;48.840;9.162;2024-03-22T04:32:23;2.00;;;1.83;;
35540;SDS011;21650;48.840;9.162;2024-03-22T04:34:49;2.20;;;1.70;;
35540;SDS011;21650;48.840;9.162;2024-03-22T04:37:14;6.10;;;2.70;;
35540;SDS011;21650;48.840;9.162;2024-03-22T04:39:40;3.57;;;2.10;;
35540;SDS011;21650;48.840;9.162;2024-03-22T04:42:06;5.53;;;2.20;;
35540;SDS011;21650;48.840;9.162;2024-03-22T04:44:32;4.13;;;2.63;;
35540;SDS011;21650;48.840;9.162;2024-03-22T04:46:58;3.00;;;2.63;;
35540;SDS011;21650;48.840;9.162;2024-03-22T04:49:24;4.17;;;2.53;;
35540;SDS011;21650;48.840;9.162;2024-03-22T04:51:49;1.50;;;1.40;;
35540;SDS011;21650;48.840;9.162;2024-03-22T04:54:15;4.43;;;2.13;;
35540;SDS011;21650;48.840;9.162;2024-03-22T04:56:40;2.20;;;1.77;;
35540;SDS011;21650;48.840;9.162;2024-03-22T04:59:06;4.60;;;3.43;;
35540;SDS011;21650;48.840;9.162;2024-03-22T05:01:32;1.50;;;1.40;;
35540;SDS011;21650;48.840;9.162;2024-03-22T05:03:57;3.07;;;2.87;;
35540;SDS011;21650;48.840;9.162;2024-03-22T05:06:23;2.87;;;2.07;;
35540;SDS011;21650;48.840;9.162;2024-03-22T05:08:48;1.43;;;1.23;;
35540;SDS011;21650;48.840;9.162;2024-03-22T05:11:14;4.97;;;2.50;;
35540;SDS011;21650;48.840;9.162;2024-03-22T05:13:40;4.97;;;3.07;;
35540;SDS011;21650;48.840;9.162;2024-03-22T05:16:06;2.43;;;2.23;;
35540;SDS011;21650;48.840;9.162;2024-03-22T05:18:32;3.10;;;2.70;;
35540;SDS011;21650;48.840;9.162;2024-03-22T05:20:57;2.27;;;1.80;;
35540;SDS011;21650;48.840;9.162;2024-03-22T05:23:23;4.37;;;1.97;;
35540;SDS011;21650;48.840;9.162;2024-03-22T05:25:49;5.60;;;3.17;;
35540;SDS011;21650;48.840;9.162;2024-03-22T05:28:14;5.20;;;3.13;;
35540;SDS011;21650;48.840;9.162;2024-03-22T05:30:40;3.10;;;1.60;;
35540;SDS011;21650;48.840;9.162;2024-03-22T05:33:05;2.17;;;1.87;;
35540;SDS011;21650;48.840;9.162;2024-03-22T05:35:31;4.33;;;3.87;;
35540;SDS011;21650;48.840;9.162;2024-03-22T05:37:57;3.03;;;2.50;;
35540;SDS011;21650;48.840;9.162;2024-03-22T05:40:22;4.80;;;4.03;;
35540;SDS011;21650;48.840;9.162;2024-03-22T05:42:48;6.03;;;3.57;;
35540;SDS011;21650;48.840;9.162;2024-03-22T05:45:13;3.10;;;2.50;;
35540;SDS011;21650;48.840;9.162;2024-03-22T05:47:39;4.70;;;3.43;;
35540;SDS011;21650;48.840;9.162;2024-03-22T05:50:05;1.73;;;1.20;;
35540;SDS011;21650;48.840;9.162;2024-03-22T05:52:34;3.53;;;2.23;;
35540;SDS011;21650;48.840;9.162;2024-03-22T05:55:00;8.53;;;3.30;;
35540;SDS011;21650;48.840;9.162;2024-03-22T05:57:25;3.37;;;2.80;;
35540;SDS011;21650;48.840;9.162;2024-03-22T05:59:51;3.80;;;3.37;;
35540;SDS011;21650;48.840;9.162;2024-03-22T06:02:18;4.77;;;2.37;;
35540;SDS011;21650;48.840;9.162;2024-03-22T06:04:44;4.20;;;2.33;;
35540;SDS011;21650;48.840;9.162;2024-03-22T06:07:10;3.10;;;2.83;;
35540;SDS011;21650;48.840;9.162;2024-03-22T06:09:35;2.53;;;2.27;;
35540;SDS011;21650;48.840;9.162;2024-03-22T06:12:14;4.43;;;2.47;;
35540;SDS011;21650;48.840;9.162;2024-03-22T06:14:40;2.97;;;1.57;;
35540;SDS011;21650;48.840;9.162;2024-03-22T06:17:07;3.93;;;2.80;;
35540;SDS011;21650;48.840;9.162;2024-03-22T06:19:33;4.33;;;2.47;;
35540;SDS011;21650;48.840;9.162;2024-03-22T06:21:59;5.10;;;3.10;;
35540;SDS011;21650;48.840;9.162;2024-03-22T06:24:24;2.23;;;1.97;;
35540;SDS011;21650;48.840;9.162;2024-03-22T06:26:50;2.57;;;2.37;;
35540;SDS011;21650;48.840;9.162;2024-03-22T06:29:16;4.50;;;3.70;;
35540;SDS011;21650;48.840;9.162;2024-03-22T06:31:41;3.27;;;2.90;;
35540;SDS011;21650;48.840;9.162;2024-03-22T06:34:07;3.43;;;3.13;;
35540;SDS011;21650;48.840;9.162;2024-03-22T06:36:33;2.63;;;2.43;;
35540;SDS011;21650;48.840;9.162;2024-03-22T06:38:59;4.23;;;3.33;;
35540;SDS011;21650;48.840;9.162;2024-03-22T06:41:25;6.50;;;2.93;;
35540;SDS011;21650;48.840;9.162;2024-03-22T06:43:51;2.73;;;2.37;;
35540;SDS011;21650;48.840;9.162;2024-03-22T06:46:17;3.37;;;2.90;;
35540;SDS011;21650;48.840;9.162;2024-03-22T06:48:42;4.83;;;1.97;;
35540;SDS011;21650;48.840;9.162;2024-03-22T06:51:08;2.83;;;1.90;;
35540;SDS011;21650;48.840;9.162;2024-03-22T06:53:33;6.93;;;5.00;;
35540;SDS011;21650;48.840;9.162;2024-03-22T06:55:59;3.70;;;3.03;;
35540;SDS011;21650;48.840;9.162;2024-03-22T06:58:25;4.03;;;2.23;;
35540;SDS011;21650;48.840;9.162;2024-03-22T07:00:50;3.13;;;2.70;;
35540;SDS011;21650;48.840;9.162;2024-03-22T07:03:16;6.23;;;2.07;;
35540;SDS011;21650;48.840;9.162;2024-03-22T07:05:42;3.20;;;2.00;;
35540;SDS011;21650;48.840;9.162;2024-03-22T07:08:08;4.67;;;4.17;;
35540;SDS011;21650;48.840;9.162;2024-03-22T07:10:34;4.03;;;3.43;;
35540;SDS011;21650;48.840;9.162;2024-03-22T07:13:00;2.00;;;1.80;;
35540;SDS011;21650;48.840;9.162;2024-03-22T07:15:26;4.90;;;3.23;;
35540;SDS011;21650;48.840;9.162;2024-03-22T07:17:51;4.80;;;3.20;;
35540;SDS011;21650;48.840;9.162;2024-03-22T07:20:17;4.50;;;3.07;;
35540;SDS011;21650;48.840;9.162;2024-03-22T07:22:43;3.23;;;2.53;;
35540;SDS011;21650;48.840;9.162;2024-03-22T07:25:09;3.53;;;2.07;;
35540;SDS011;21650;48.840;9.162;2024-03-22T07:27:37;7.57;;;2.80;;
35540;SDS011;21650;48.840;9.162;2024-03-22T07:30:03;2.97;;;1.80;;
35540;SDS011;21650;48.840;9.162;2024-03-22T07:32:29;3.17;;;2.67;;
35540;SDS011;21650;48.840;9.162;2024-03-22T07:34:55;3.77;;;3.33;;
35540;SDS011;21650;48.840;9.162;2024-03-22T07:37:21;2.40;;;2.20;;
35540;SDS011;21650;48.840;9.162;2024-03-22T07:39:46;5.73;;;3.27;;
35540;SDS011;21650;48.840;9.162;2024-03-22T07:42:12;5.07;;;3.40;;
35540;SDS011;21650;48.840;9.162;2024-03-22T07:44:38;2.67;;;2.43;;
35540;SDS011;21650;48.840;9.162;2024-03-22T07:47:03;5.17;;;2.73;;
35540;SDS011;21650;48.840;9.162;2024-03-22T07:49:29;4.17;;;2.23;;
35540;SDS011;21650;48.840;9.162;2024-03-22T07:51:56;5.90;;;3.30;;
35540;SDS011;21650;48.840;9.162;2024-03-22T07:54:22;4.30;;;2.20;;
35540;SDS011;21650;48.840;9.162;2024-03-22T07:56:47;5.43;;;3.30;;
35540;SDS011;21650;48.840;9.162;2024-03-22T07:59:13;4.67;;;2.70;;
35540;SDS011;21650;48.840;9.162;2024-03-22T08:01:39;5.47;;;2.70;;
35540;SDS011;21650;48.840;9.162;2024-03-22T08:04:05;3.43;;;2.37;;
35540;SDS011;21650;48.840;9.162;2024-03-22T08:06:31;3.13;;;2.27;;
35540;SDS011;21650;48.840;9.162;2024-03-22T08:08:56;4.57;;;3.00;;
35540;SDS011;21650;48.840;9.162;2024-03-22T08:11:22;5.90;;;2.90;;
35540;SDS011;21650;48.840;9.162;2024-03-22T08:13:47;4.43;;;2.90;;
35540;SDS011;21650;48.840;9.162;2024-03-22T08:16:13;5.93;;;3.73;;
35540;SDS011;21650;48.840;9.162;2024-03-22T08:18:39;6.10;;;3.63;;
35540;SDS011;21650;48.840;9.162;2024-03-22T08:21:04;5.90;;;3.27;;
35540;SDS011;21650;48.840;9.162;2024-03-22T08:23:30;5.27;;;2.67;;
35540;SDS011;21650;48.840;9.162;2024-03-22T08:25:55;5.37;;;2.90;;
35540;SDS011;21650;48.840;9.162;2024-03-22T08:28:22;4.53;;;3.00;;
35540;SDS011;21650;48.840;9.162;2024-03-22T08:30:48;2.23;;;2.13;;
35540;SDS011;21650;48.840;9.162;2024-03-22T08:33:14;3.17;;;2.33;;
35540;SDS011;21650;48.840;9.162;2024-03-22T08:35:39;2.10;;;1.90;;
35540;SDS011;21650;48.840;9.162;2024-03-22T08:38:05;5.07;;;1.97;;
35540;SDS011;21650;48.840;9.162;2024-03-22T08:40:38;3.27;;;2.27;;
35540;SDS011;21650;48.840;9.162;2024-03-22T08:43:03;3.43;;;2.17;;
35540;SDS011;21650;48.840;9.162;2024-03-22T08:45:30;2.57;;;2.17;;
35540;SDS011;21650;48.840;9.162;2024-03-22T08:47:55;3.17;;;2.07;;
35540;SDS011;21650;48.840;9.162;2024-03-22T08:50:21;5.03;;;3.13;;
35540;SDS011;21650;48.840;9.162;2024-03-22T08:52:46;2.97;;;2.47;;
35540;SDS011;21650;48.840;9.162;2024-03-22T08:55:12;3.57;;;1.73;;
35540;SDS011;21650;48.840;9.162;2024-03-22T08:57:38;1.67;;;1.17;;
35540;SDS011;21650;48.840;9.162;2024-03-22T09:00:03;2.23;;;1.97;;
35540;SDS011;21650;48.840;9.162;2024-03-22T09:02:30;2.40;;;1.80;;
35540;SDS011;21650;48.840;9.162;2024-03-22T09:04:55;2.47;;;1.50;;
35540;SDS011;21650;48.840;9.162;2024-03-22T09:07:21;1.00;;;1.00;;
35540;SDS011;21650;48.840;9.162;2024-03-22T09:09:48;1.40;;;1.00;;
35540;SDS011;21650;48.840;9.162;2024-03-22T09:12:14;1.17;;;1.03;;
35540;SDS011;21650;48.840;9.162;2024-03-22T09:14:39;1.53;;;1.33;;
35540;SDS011;21650;48.840;9.162;2024-03-22T09:17:05;3.37;;;1.20;;
35540;SDS011;21650;48.840;9.162;2024-03-22T09:19:31;2.67;;;1.20;;
35540;SDS011;21650;48.840;9.162;2024-03-22T09:21:56;2.00;;;1.10;;
35540;SDS011;21650;48.840;9.162;2024-03-22T09:24:22;2.17;;;1.37;;
35540;SDS011;21650;48.840;9.162;2024-03-22T09:26:48;1.97;;;1.37;;
35540;SDS011;21650;48.840;9.162;2024-03-22T09:29:13;1.30;;;1.20;;
35540;SDS011;21650;48.840;9.162;2024-03-22T09:31:39;2.20;;;1.40;;
35540;SDS011;21650;48.840;9.162;2024-03-22T09:34:04;3.30;;;1.50;;
35540;SDS011;21650;48.840;9.162;2024-03-22T09:36:30;2.37;;;1.50;;
35540;SDS011;21650;48.840;9.162;2024-03-22T09:38:59;1.13;;;1.10;;
35540;SDS011;21650;48.840;9.162;2024-03-22T09:41:25;5.30;;;2.50;;
35540;SDS011;21650;48.840;9.162;2024-03-22T09:43:54;3.83;;;1.83;;
35540;SDS011;21650;48.840;9.162;2024-03-22T09:46:23;2.30;;;1.77;;
35540;SDS011;21650;48.840;9.162;2024-03-22T09:48:50;1.43;;;1.07;;
35540;SDS011;21650;48.840;9.162;2024-03-22T09:51:17;1.73;;;1.37;;
35540;SDS011;21650;48.840;9.162;2024-03-22T09:53:46;1.87;;;1.20;;
35540;SDS011;21650;48.840;9.162;2024-03-22T09:56:14;0.57;;;0.50;;
35540;SDS011;21650;48.840;9.162;2024-03-22T09:58:40;2.17;;;1.67;;
35540;SDS011;21650;48.840;9.162;2024-03-22T10:01:07;3.83;;;2.07;;
35540;SDS011;21650;48.840;9.162;2024-03-22T10:03:33;2.10;;;1.20;;
35540;SDS011;21650;48.840;9.162;2024-03-22T10:05:58;1.70;;;1.00;;
35540;SDS011;21650;48.840;9.162;2024-03-22T10:08:24;0.97;;;0.83;;
35540;SDS011;21650;48.840;9.162;2024-03-22T10:10:50;1.10;;;1.00;;
35540;SDS011;21650;48.840;9.162;2024-03-22T10:13:15;2.47;;;1.40;;
35540;SDS011;21650;48.840;9.162;2024-03-22T10:15:41;1.53;;;1.07;;
35540;SDS011;21650;48.840;9.162;2024-03-22T10:18:07;1.13;;;1.03;;
35540;SDS011;21650;48.840;9.162;2024-03-22T10:20:34;7.30;;;1.50;;
35540;SDS011;21650;48.840;9.162;2024-03-22T10:23:00;1.40;;;1.30;;
35540;SDS011;21650;48.840;9.162;2024-03-22T10:25:29;1.60;;;1.33;;
35540;SDS011;21650;48.840;9.162;2024-03-22T10:27:55;2.60;;;1.77;;
35540;SDS011;21650;48.840;9.162;2024-03-22T10:30:21;3.13;;;1.93;;
35540;SDS011;21650;48.840;9.162;2024-03-22T10:32:48;3.57;;;1.57;;
35540;SDS011;21650;48.840;9.162;2024-03-22T10:35:14;2.40;;;1.80;;
35540;SDS011;21650;48.840;9.162;2024-03-22T10:37:41;1.47;;;0.80;;
35540;SDS011;21650;48.840;9.162;2024-03-22T10:40:07;2.57;;;1.93;;
35540;SDS011;21650;48.840;9.162;2024-03-22T10:42:38;3.77;;;1.77;;
35540;SDS011;21650;48.840;9.162;2024-03-22T10:45:05;1.57;;;1.07;;
35540;SDS011;21650;48.840;9.162;2024-03-22T10:47:32;2.63;;;1.27;;
35540;SDS011;21650;48.840;9.162;2024-03-22T10:52:33;2.23;;;1.23;;
35540;SDS011;21650;48.840;9.162;2024-03-22T10:55:04;3.43;;;2.20;;
35540;SDS011;21650;48.840;9.162;2024-03-22T10:57:33;2.57;;;1.30;;
35540;SDS011;21650;48.840;9.162;2024-03-22T11:00:03;3.60;;;1.50;;
35540;SDS011;21650;48.840;9.162;2024-03-22T11:02:35;1.00;;;0.87;;
35540;SDS011;21650;48.840;9.162;2024-03-22T11:05:01;3.33;;;1.43;;
35540;SDS011;21650;48.840;9.162;2024-03-22T11:07:29;2.33;;;1.97;;
35540;SDS011;21650;48.840;9.162;2024-03-22T11:09:56;1.73;;;1.27;;
35540;SDS011;21650;48.840;9.162;2024-03-22T11:12:23;2.00;;;1.37;;
35540;SDS011;21650;48.840;9.162;2024-03-22T11:14:50;2.07;;;1.33;;
35540;SDS011;21650;48.840;9.162;2024-03-22T11:17:17;1.30;;;1.20;;
35540;SDS011;21650;48.840;9.162;2024-03-22T11:19:42;2.93;;;1.50;;
35540;SDS011;21650;48.840;9.162;2024-03-22T11:22:08;1.83;;;1.70;;
35540;SDS011;21650;48.840;9.162;2024-03-22T11:24:36;2.87;;;1.33;;
35540;SDS011;21650;48.840;9.162;2024-03-22T11:27:02;2.80;;;1.47;;
35540;SDS011;21650;48.840;9.162;2024-03-22T11:29:28;0.80;;;0.80;;
35540;SDS011;21650;48.840;9.162;2024-03-22T11:31:54;3.37;;;1.13;;
35540;SDS011;21650;48.840;9.162;2024-03-22T11:34:19;1.10;;;1.00;;
35540;SDS011;21650;48.840;9.162;2024-03-22T11:36:45;1.10;;;0.80;;
35540;SDS011;21650;48.840;9.162;2024-03-22T11:39:11;2.33;;;2.10;;
35540;SDS011;21650;48.840;9.162;2024-03-22T11:41:36;2.40;;;0.87;;
35540;SDS011;21650;48.840;9.162;2024-03-22T11:44:02;1.03;;;0.90;;
35540;SDS011;21650;48.840;9.162;2024-03-22T11:46:28;0.57;;;0.57;;
35540;SDS011;21650;48.840;9.162;2024-03-22T11:48:55;1.07;;;0.97;;
35540;SDS011;21650;48.840;9.162;2024-03-22T11:51:20;2.37;;;1.57;;
35540;SDS011;21650;48.840;9.162;2024-03-22T11:53:51;1.87;;;1.20;;
35540;SDS011;21650;48.840;9.162;2024-03-22T11:56:19;1.40;;;0.80;;
35540;SDS011;21650;48.840;9.162;2024-03-22T11:58:45;1.90;;;0.90;;
35540;SDS011;21650;48.840;9.162;2024-03-22T12:01:12;1.90;;;1.43;;
35540;SDS011;21650;48.840;9.162;2024-03-22T12:03:39;1.90;;;1.03;;
35540;SDS011;21650;48.840;9.162;2024-03-22T12:06:07;1.93;;;1.03;;
35540;SDS011;21650;48.840;9.162;2024-03-22T12:08:34;1.43;;;1.17;;
35540;SDS011;21650;48.840;9.162;2024-03-22T12:11:03;2.00;;;0.83;;
35540;SDS011;21650;48.840;9.162;2024-03-22T12:13:29;1.30;;;0.83;;
35540;SDS011;21650;48.840;9.162;2024-03-22T12:15:54;0.53;;;0.50;;
35540;SDS011;21650;48.840;9.162;2024-03-22T12:18:20;0.80;;;0.80;;
35540;SDS011;21650;48.840;9.162;2024-03-22T12:20:46;1.27;;;0.80;;
35540;SDS011;21650;48.840;9.162;2024-03-22T12:23:11;5.57;;;2.93;;
35540;SDS011;21650;48.840;9.162;2024-03-22T12:25:37;1.33;;;1.23;;
35540;SDS011;21650;48.840;9.162;2024-03-22T12:28:03;4.57;;;1.10;;
35540;SDS011;21650;48.840;9.162;2024-03-22T12:30:29;2.00;;;0.80;;
35540;SDS011;21650;48.840;9.162;2024-03-22T12:32:55;1.83;;;0.77;;
35540;SDS011;21650;48.840;9.162;2024-03-22T12:35:21;1.10;;;0.70;;
35540;SDS011;21650;48.840;9.162;2024-03-22T12:37:46;3.07;;;1.20;;
35540;SDS011;21650;48.840;9.162;2024-03-22T12:40:12;0.83;;;0.83;;
35540;SDS011;21650;48.840;9.162;2024-03-22T12:42:39;1.13;;;0.83;;
35540;SDS011;21650;48.840;9.162;2024-03-22T12:45:05;0.90;;;0.60;;
35540;SDS011;21650;48.840;9.162;2024-03-22T12:47:32;1.00;;;0.67;;
35540;SDS011;21650;48.840;9.162;2024-03-22T12:49:58;1.40;;;0.67;;
35540;SDS011;21650;48.840;9.162;2024-03-22T12:52:23;0.50;;;0.40;;
35540;SDS011;21650;48.840;9.162;2024-03-22T12:54:49;3.13;;;0.80;;
35540;SDS011;21650;48.840;9.162;2024-03-22T12:57:14;0.83;;;0.83;;
35540;SDS011;21650;48.840;9.162;2024-03-22T12:59:40;0.67;;;0.60;;
35540;SDS011;21650;48.840;9.162;2024-03-22T13:02:06;0.70;;;0.63;;
35540;SDS011;21650;48.840;9.162;2024-03-22T13:04:33;2.83;;;1.23;;
35540;SDS011;21650;48.840;9.162;2024-03-22T13:06:58;0.90;;;0.50;;
35540;SDS011;21650;48.840;9.162;2024-03-22T13:09:24;0.93;;;0.93;;
35540;SDS011;21650;48.840;9.162;2024-03-22T13:11:49;0.23;;;0.23;;
35540;SDS011;21650;48.840;9.162;2024-03-22T13:14:15;1.37;;;1.27;;
35540;SDS011;21650;48.840;9.162;2024-03-22T13:16:41;1.70;;;1.10;;
35540;SDS011;21650;48.840;9.162;2024-03-22T13:19:06;1.43;;;0.70;;
35540;SDS011;21650;48.840;9.162;2024-03-22T13:21:37;2.20;;;0.73;;
35540;SDS011;21650;48.840;9.162;2024-03-22T13:24:03;1.00;;;0.90;;
35540;SDS011;21650;48.840;9.162;2024-03-22T13:26:28;2.63;;;1.70;;
35540;SDS011;21650;48.840;9.162;2024-03-22T13:28:54;2.67;;;1.80;;
35540;SDS011;21650;48.840;9.162;2024-03-22T13:31:19;1.00;;;0.83;;
35540;SDS011;21650;48.840;9.162;2024-03-22T13:33:45;0.77;;;0.70;;
35540;SDS011;21650;48.840;9.162;2024-03-22T13:36:12;0.70;;;0.70;;
35540;SDS011;21650;48.840;9.162;2024-03-22T13:38:38;1.30;;;0.90;;
35540;SDS011;21650;48.840;9.162;2024-03-22T13:41:03;3.97;;;2.10;;
35540;SDS011;21650;48.840;9.162;2024-03-22T13:43:31;3.13;;;1.40;;
35540;SDS011;21650;48.840;9.162;2024-03-22T13:45:56;1.03;;;0.67;;
35540;SDS011;21650;48.840;9.162;2024-03-22T13:48:23;2.03;;;0.60;;
35540;SDS011;21650;48.840;9.162;2024-03-22T13:50:50;1.40;;;1.30;;
35540;SDS011;21650;48.840;9.162;2024-03-22T13:53:16;2.67;;;1.37;;
35540;SDS011;21650;48.840;9.162;2024-03-22T13:55:42;1.70;;;1.43;;
35540;SDS011;21650;48.840;9.162;2024-03-22T13:58:08;4.20;;;0.90;;
35540;SDS011;21650;48.840;9.162;2024-03-22T14:00:34;1.13;;;0.83;;
35540;SDS011;21650;48.840;9.162;2024-03-22T14:03:00;1.50;;;1.03;;
35540;SDS011;21650;48.840;9.162;2024-03-22T14:05:26;0.80;;;0.70;;
35540;SDS011;21650;48.840;9.162;2024-03-22T14:07:52;1.17;;;1.13;;
35540;SDS011;21650;48.840;9.162;2024-03-22T14:10:17;0.53;;;0.53;;
35540;SDS011;21650;48.840;9.162;2024-03-22T14:12:45;0.63;;;0.37;;
35540;SDS011;21650;48.840;9.162;2024-03-22T14:15:11;3.63;;;0.70;;
35540;SDS011;21650;48.840;9.162;2024-03-22T14:17:36;1.07;;;0.60;;
35540;SDS011;21650;48.840;9.162;2024-03-22T14:20:02;0.83;;;0.70;;
35540;SDS011;21650;48.840;9.162;2024-03-22T14:22:37;1.30;;;0.67;;
35540;SDS011;21650;48.840;9.162;2024-03-22T14:25:03;1.70;;;1.03;;
35540;SDS011;21650;48.840;9.162;2024-03-22T14:27:29;1.20;;;0.50;;
35540;SDS011;21650;48.840;9.162;2024-03-22T14:29:55;0.23;;;0.23;;
35540;SDS011;21650;48.840;9.162;2024-03-22T14:32:21;0.10;;;0.10;;
35540;SDS011;21650;48.840;9.162;2024-03-22T14:34:46;0.50;;;0.50;;
35540;SDS011;21650;48.840;9.162;2024-03-22T14:37:12;0.60;;;0.47;;
35540;SDS011;21650;48.840;9.162;2024-03-22T14:39:37;0.30;;;0.30;;
35540;SDS011;21650;48.840;9.162;2024-03-22T14:42:03;0.30;;;0.30;;